createdAt,value
2019-04-20T00:00:37.188Z,6.80
2019-04-20T00:03:01.736Z,6.80
2019-04-20T00:05:30.926Z,6.23
2019-04-20T00:08:01.215Z,7.27
2019-04-20T00:10:41.724Z,9.13
2019-04-20T00:13:13.711Z,6.50
2019-04-20T00:15:32.335Z,6.17
2019-04-20T00:18:04.646Z,5.60
2019-04-20T00:20:35.528Z,5.80
2019-04-20T00:23:30.666Z,8.17
2019-04-20T00:26:20.535Z,5.90
2019-04-20T00:29:00.323Z,6.53
2019-04-20T00:31:29.767Z,5.30
2019-04-20T00:33:55.828Z,10.53
2019-04-20T00:36:15.999Z,9.40
2019-04-20T00:38:51.006Z,7.37
2019-04-20T00:41:18.884Z,6.83
2019-04-20T00:43:47.531Z,6.27
2019-04-20T00:46:26.442Z,10.17
2019-04-20T00:48:58.415Z,6.50
2019-04-20T00:51:36.493Z,8.90
2019-04-20T00:53:52.355Z,6.13
2019-04-20T00:56:20.274Z,5.50
2019-04-20T00:59:05.508Z,6.23
2019-04-20T01:01:46.241Z,6.53
2019-04-20T01:04:13.175Z,6.27
2019-04-20T01:06:42.416Z,10.40
2019-04-20T01:09:14.103Z,6.33
2019-04-20T01:11:45.473Z,5.73
2019-04-20T01:14:15.775Z,8.70
2019-04-20T01:16:51.351Z,11.23
2019-04-20T01:19:15.895Z,7.43
2019-04-20T01:21:52.584Z,6.80
2019-04-20T01:24:23.915Z,7.20
2019-04-20T01:26:50.624Z,5.70
2019-04-20T01:29:29.689Z,6.47
2019-04-20T01:32:02.202Z,5.00
2019-04-20T01:34:34.601Z,6.23
2019-04-20T01:37:04.383Z,6.03
2019-04-20T01:39:28.398Z,5.13
2019-04-20T01:41:51.942Z,5.60
2019-04-20T01:44:28.141Z,9.70
2019-04-20T01:46:57.945Z,5.57
2019-04-20T01:49:25.369Z,9.07
2019-04-20T01:52:03.946Z,5.93
2019-04-20T01:54:38.603Z,7.73
2019-04-20T01:57:12.822Z,5.93
2019-04-20T01:59:45.979Z,7.20
2019-04-20T02:02:50.417Z,6.50
2019-04-20T02:05:24.765Z,5.23
2019-04-20T02:07:50.488Z,11.50
2019-04-20T02:10:20.002Z,6.50
2019-04-20T02:12:53.036Z,5.63
2019-04-20T02:15:29.389Z,6.10
2019-04-20T02:18:03.651Z,5.97
2019-04-20T02:20:39.010Z,7.33
2019-04-20T02:23:06.507Z,7.03
2019-04-20T02:25:22.761Z,6.57
2019-04-20T02:28:01.387Z,7.93
2019-04-20T02:30:55.310Z,7.40
2019-04-20T02:36:27.976Z,5.80
2019-04-20T02:39:21.492Z,6.43
2019-04-20T02:41:35.086Z,7.07
2019-04-20T02:44:23.576Z,7.67
2019-04-20T02:46:31.542Z,6.37
2019-04-20T02:49:12.945Z,8.90
2019-04-20T02:51:40.955Z,7.53
2019-04-20T02:54:15.202Z,7.80
2019-04-20T02:56:40.357Z,6.10
2019-04-20T02:59:47.237Z,7.20
2019-04-20T03:01:40.850Z,7.40
2019-04-20T03:03:57.648Z,7.10
2019-04-20T03:06:32.662Z,7.80
2019-04-20T03:09:17.669Z,7.63
2019-04-20T03:11:55.082Z,6.83
2019-04-20T03:14:09.571Z,8.97
2019-04-20T03:16:45.512Z,7.23
2019-04-20T03:19:12.977Z,8.40
2019-04-20T03:21:54.181Z,7.93
2019-04-20T03:24:20.437Z,8.73
2019-04-20T03:26:56.907Z,6.87
2019-04-20T03:29:37.339Z,9.30
2019-04-20T03:37:26.674Z,8.00
2019-04-20T03:39:48.824Z,8.10
2019-04-20T03:42:03.920Z,8.47
2019-04-20T03:44:35.551Z,8.30
2019-04-20T03:47:08.806Z,9.70
2019-04-20T03:50:14.696Z,8.80
2019-04-20T03:52:43.455Z,10.00
2019-04-20T03:55:39.717Z,6.87
2019-04-20T03:58:34.474Z,8.50
2019-04-20T04:01:47.657Z,11.33
2019-04-20T04:04:21.233Z,7.43
2019-04-20T04:06:42.031Z,6.60
2019-04-20T04:09:16.136Z,7.73
2019-04-20T04:11:52.562Z,6.97
2019-04-20T04:14:07.166Z,7.00
2019-04-20T04:16:42.929Z,7.77
2019-04-20T04:19:16.153Z,12.30
2019-04-20T04:21:56.042Z,10.20
2019-04-20T04:24:20.216Z,8.07
2019-04-20T04:26:51.673Z,6.83
2019-04-20T04:29:34.625Z,11.40
2019-04-20T04:32:05.467Z,7.20
2019-04-20T04:34:30.594Z,8.93
2019-04-20T04:37:03.679Z,8.73
2019-04-20T04:39:30.961Z,9.83
2019-04-20T04:42:10.211Z,9.27
2019-04-20T04:44:26.306Z,8.77
2019-04-20T04:46:53.460Z,9.00
2019-04-20T04:49:24.209Z,10.30
2019-04-20T04:51:55.517Z,9.33
2019-04-20T04:54:25.853Z,9.57
2019-04-20T04:56:46.576Z,8.30
2019-04-20T04:59:17.069Z,9.53
2019-04-20T05:01:51.448Z,9.93
2019-04-20T05:04:40.034Z,9.13
2019-04-20T05:07:05.115Z,8.20
2019-04-20T05:09:20.972Z,11.40
2019-04-20T05:11:59.955Z,9.90
2019-04-20T05:14:26.201Z,7.50
2019-04-20T05:17:09.923Z,8.77
2019-04-20T05:19:40.899Z,8.90
2019-04-20T05:22:20.217Z,8.70
2019-04-20T05:25:02.086Z,10.23
2019-04-20T05:27:34.758Z,9.93
2019-04-20T05:29:44.994Z,8.47
2019-04-20T05:32:18.433Z,9.03
2019-04-20T05:35:05.082Z,8.70
2019-04-20T05:37:41.412Z,9.27
2019-04-20T05:40:10.734Z,8.57
2019-04-20T05:42:48.501Z,8.60
2019-04-20T05:45:11.467Z,9.20
2019-04-20T05:47:42.869Z,9.40
2019-04-20T05:50:17.883Z,9.83
2019-04-20T05:55:20.847Z,8.60
2019-04-20T05:57:51.141Z,10.90
2019-04-20T06:00:24.694Z,8.03
2019-04-20T06:02:49.789Z,8.77
2019-04-20T06:05:23.318Z,9.30
2019-04-20T06:07:53.472Z,9.03
2019-04-20T06:10:26.415Z,8.03
2019-04-20T06:12:54.177Z,8.90
2019-04-20T06:15:40.718Z,12.10
2019-04-20T06:18:13.790Z,9.43
2019-04-20T06:20:48.439Z,10.37
2019-04-20T06:23:59.337Z,9.77
2019-04-20T06:26:44.238Z,9.70
2019-04-20T06:28:52.968Z,12.83
2019-04-20T06:31:30.115Z,11.10
2019-04-20T06:36:49.669Z,10.50
2019-04-20T06:39:27.721Z,10.37
2019-04-20T06:42:08.352Z,8.33
2019-04-20T06:44:29.176Z,8.90
2019-04-20T06:47:02.763Z,10.90
2019-04-20T06:49:30.192Z,9.07
2019-04-20T06:52:12.986Z,9.90
2019-04-20T06:55:05.639Z,8.17
2019-04-20T06:57:56.257Z,8.30
2019-04-20T07:02:44.419Z,9.20
2019-04-20T07:05:24.794Z,15.93
2019-04-20T07:07:47.512Z,7.73
2019-04-20T07:10:31.984Z,9.00
2019-04-20T07:12:43.653Z,9.23
2019-04-20T07:15:17.382Z,9.63
2019-04-20T07:18:06.471Z,10.80
2019-04-20T07:20:41.197Z,11.67
2019-04-20T07:23:18.635Z,8.40
2019-04-20T07:25:37.407Z,7.20
2019-04-20T07:28:12.793Z,8.53
2019-04-20T07:30:42.363Z,8.00
2019-04-20T07:33:09.690Z,11.07
2019-04-20T07:35:44.429Z,11.30
2019-04-20T07:40:38.123Z,9.57
2019-04-20T07:43:13.350Z,11.80
2019-04-20T07:45:36.221Z,7.27
2019-04-20T07:48:17.957Z,8.03
2019-04-20T07:50:38.486Z,9.80
2019-04-20T07:53:12.519Z,7.20
2019-04-20T07:55:51.133Z,7.13
2019-04-20T07:58:10.054Z,8.63
2019-04-20T08:01:05.957Z,7.77
2019-04-20T08:03:39.354Z,8.63
2019-04-20T08:06:01.460Z,8.10
2019-04-20T08:08:32.850Z,8.77
2019-04-20T08:11:07.348Z,7.67
2019-04-20T08:13:45.387Z,12.30
2019-04-20T08:16:14.592Z,6.93
2019-04-20T08:18:46.968Z,7.70
2019-04-20T08:21:21.103Z,9.80
2019-04-20T08:23:44.542Z,7.93
2019-04-20T08:26:05.526Z,9.13
2019-04-20T08:28:46.450Z,8.60
2019-04-20T08:31:46.219Z,10.20
2019-04-20T08:34:31.338Z,11.10
2019-04-20T08:36:59.866Z,10.03
2019-04-20T08:39:43.411Z,10.87
2019-04-20T08:42:00.209Z,10.10
2019-04-20T08:44:47.055Z,11.00
2019-04-20T08:47:42.272Z,10.10
2019-04-20T08:49:35.098Z,9.20
2019-04-20T08:52:21.518Z,8.97
2019-04-20T08:54:26.636Z,10.27
2019-04-20T08:56:48.851Z,10.97
2019-04-20T08:59:14.090Z,9.20
2019-04-20T09:01:44.488Z,11.83
2019-04-20T09:04:20.852Z,9.77
2019-04-20T09:06:58.429Z,10.10
2019-04-20T09:09:44.522Z,10.17
2019-04-20T09:12:11.971Z,8.63
2019-04-20T09:14:21.770Z,8.80
2019-04-20T09:17:02.874Z,10.50
2019-04-20T09:19:41.743Z,8.77
2019-04-20T09:22:28.322Z,8.90
2019-04-20T09:25:25.407Z,8.57
2019-04-20T09:27:28.979Z,9.70
2019-04-20T09:30:05.338Z,9.37
2019-04-20T09:32:39.724Z,12.83
2019-04-20T09:35:13.369Z,10.30
2019-04-20T09:37:53.102Z,8.60
2019-04-20T09:40:35.557Z,9.90
2019-04-20T09:42:53.184Z,9.30
2019-04-20T09:45:36.836Z,11.67
2019-04-20T09:48:06.775Z,9.47
2019-04-20T09:50:55.543Z,10.60
2019-04-20T09:53:21.138Z,7.90
2019-04-20T09:55:54.695Z,10.20
2019-04-20T09:58:18.054Z,7.83
2019-04-20T10:00:57.984Z,7.13
2019-04-20T10:03:13.107Z,7.10
2019-04-20T10:05:43.287Z,6.30
2019-04-20T10:08:15.413Z,5.70
2019-04-20T10:10:47.157Z,6.00
2019-04-20T10:13:15.429Z,5.53
2019-04-20T10:15:45.825Z,7.03
2019-04-20T10:18:14.881Z,8.33
2019-04-20T10:20:45.346Z,5.67
2019-04-20T10:23:14.809Z,6.60
2019-04-20T10:25:44.697Z,6.43
2019-04-20T10:28:13.925Z,9.47
2019-04-20T10:30:44.316Z,5.87
2019-04-20T10:33:13.598Z,6.20
2019-04-20T10:35:43.567Z,6.07
2019-04-20T10:38:34.279Z,6.03
2019-04-20T10:41:11.488Z,6.10
2019-04-20T10:43:33.262Z,7.40
2019-04-20T10:46:02.722Z,7.50
2019-04-20T10:48:41.532Z,7.33
2019-04-20T10:51:03.143Z,6.50
2019-04-20T10:53:32.545Z,7.03
2019-04-20T10:56:01.545Z,7.03
2019-04-20T10:58:31.686Z,7.23
2019-04-20T11:01:01.789Z,9.97
2019-04-20T11:03:32.224Z,8.90
2019-04-20T11:06:02.766Z,15.07
2019-04-20T11:08:32.891Z,6.77
2019-04-20T11:11:11.780Z,8.50
2019-04-20T11:13:33.187Z,7.77
2019-04-20T11:16:02.522Z,7.90
2019-04-20T11:18:31.529Z,7.70
2019-04-20T11:21:04.504Z,8.60
2019-04-20T11:23:34.108Z,6.57
2019-04-20T11:26:04.309Z,8.63
2019-04-20T11:28:34.405Z,8.57
2019-04-20T11:31:06.012Z,7.10
2019-04-20T11:33:36.210Z,7.77
2019-04-20T11:36:05.378Z,7.67
2019-04-20T11:38:35.231Z,6.70
2019-04-20T11:41:13.518Z,7.13
2019-04-20T11:43:37.692Z,6.10
2019-04-20T11:46:07.116Z,8.03
2019-04-20T11:48:37.238Z,6.50
2019-04-20T11:51:07.451Z,13.30
2019-04-20T11:53:38.288Z,5.90
2019-04-20T11:56:14.631Z,6.40
2019-04-20T11:58:38.846Z,6.00
2019-04-20T12:01:37.050Z,5.90
2019-04-20T12:04:20.042Z,8.70
2019-04-20T12:06:36.898Z,6.90
2019-04-20T12:09:10.807Z,7.50
2019-04-20T12:11:56.033Z,7.77
2019-04-20T12:14:12.479Z,7.83
2019-04-20T12:16:41.764Z,8.53
2019-04-20T12:19:10.820Z,6.27
2019-04-20T12:21:40.916Z,5.80
2019-04-20T12:24:12.230Z,5.70
2019-04-20T12:26:42.680Z,6.60
2019-04-20T12:29:12.025Z,7.70
2019-04-20T12:31:44.336Z,6.70
2019-04-20T12:34:12.692Z,6.10
2019-04-20T12:36:42.803Z,7.00
2019-04-20T12:39:13.215Z,6.40
2019-04-20T12:41:49.858Z,6.23
2019-04-20T12:44:14.159Z,6.70
2019-04-20T12:46:43.709Z,6.90
2019-04-20T12:49:13.695Z,7.00
2019-04-20T12:51:50.665Z,7.40
2019-04-20T12:54:14.536Z,6.10
2019-04-20T12:56:44.634Z,5.40
2019-04-20T12:59:15.806Z,5.57
2019-04-20T13:01:44.868Z,6.33
2019-04-20T13:04:14.494Z,6.70
2019-04-20T13:06:44.746Z,5.97
2019-04-20T13:09:14.575Z,6.17
2019-04-20T13:12:08.845Z,5.97
2019-04-20T13:15:24.543Z,9.57
2019-04-20T13:17:54.295Z,5.20
2019-04-20T13:20:23.818Z,4.90
2019-04-20T13:22:53.103Z,5.63
2019-04-20T13:25:23.199Z,5.10
2019-04-20T13:27:52.761Z,6.03
2019-04-20T13:30:22.011Z,8.13
2019-04-20T13:32:51.943Z,5.73
2019-04-20T13:35:22.413Z,6.07
2019-04-20T13:37:51.980Z,7.13
2019-04-20T13:40:21.817Z,8.60
2019-04-20T13:42:51.887Z,5.87
2019-04-20T13:45:21.602Z,5.30
2019-04-20T13:47:50.833Z,6.27
2019-04-20T13:50:20.485Z,5.53
2019-04-20T13:52:49.770Z,5.13
2019-04-20T13:55:23.451Z,6.33
2019-04-20T13:58:09.985Z,6.17
2019-04-20T14:00:57.354Z,6.03
2019-04-20T14:03:29.975Z,5.87
2019-04-20T14:06:00.557Z,6.83
2019-04-20T14:08:29.899Z,5.50
2019-04-20T14:10:59.667Z,5.40
2019-04-20T14:13:36.507Z,5.67
2019-04-20T14:16:00.804Z,8.53
2019-04-20T14:18:31.053Z,5.53
2019-04-20T14:21:00.507Z,5.60
2019-04-20T14:23:30.940Z,5.10
2019-04-20T14:26:00.885Z,6.13
2019-04-20T14:28:31.219Z,6.10
2019-04-20T14:31:01.620Z,6.33
2019-04-20T14:33:31.016Z,6.87
2019-04-20T14:36:00.983Z,6.03
2019-04-20T14:38:30.655Z,7.50
2019-04-20T14:41:00.116Z,5.80
2019-04-20T14:43:31.710Z,5.37
2019-04-20T14:46:00.869Z,5.30
2019-04-20T14:48:31.048Z,6.40
2019-04-20T14:51:01.520Z,5.97
2019-04-20T14:53:31.565Z,5.03
2019-04-20T14:56:01.872Z,4.70
2019-04-20T14:59:02.411Z,5.30
2019-04-20T15:01:54.646Z,5.33
2019-04-20T15:04:25.581Z,5.30
2019-04-20T15:06:54.871Z,5.60
2019-04-20T15:09:24.713Z,5.90
2019-04-20T15:11:54.742Z,6.00
2019-04-20T15:14:24.847Z,4.90
2019-04-20T15:16:54.259Z,4.30
2019-04-20T15:19:49.476Z,4.17
2019-04-20T15:22:33.816Z,4.67
2019-04-20T15:25:03.271Z,5.63
2019-04-20T15:27:33.190Z,4.43
2019-04-20T15:30:02.690Z,6.30
2019-04-20T15:32:32.977Z,5.37
2019-04-20T15:35:03.086Z,4.13
2019-04-20T15:37:33.022Z,5.17
2019-04-20T15:40:03.446Z,4.30
2019-04-20T15:42:33.179Z,4.10
2019-04-20T15:45:03.443Z,7.50
2019-04-20T15:47:34.103Z,4.67
2019-04-20T15:50:04.173Z,3.80
2019-04-20T15:52:37.684Z,4.27
2019-04-20T15:55:14.302Z,5.40
2019-04-20T15:57:36.684Z,4.10
2019-04-20T16:00:06.733Z,3.57
2019-04-20T16:02:59.142Z,4.40
2019-04-20T16:05:40.999Z,5.20
2019-04-20T16:08:28.139Z,5.00
2019-04-20T16:10:57.608Z,4.40
2019-04-20T16:13:35.098Z,5.53
2019-04-20T16:15:58.112Z,5.13
2019-04-20T16:18:27.505Z,7.00
2019-04-20T16:21:05.524Z,5.60
2019-04-20T16:23:28.325Z,3.97
2019-04-20T16:26:17.733Z,5.30
2019-04-20T16:28:47.975Z,4.20
2019-04-20T16:31:18.346Z,4.87
2019-04-20T16:33:48.877Z,4.97
2019-04-20T16:36:18.654Z,4.70
2019-04-20T16:38:47.798Z,5.10
2019-04-20T16:41:18.031Z,5.30
2019-04-20T16:43:48.577Z,4.93
2019-04-20T16:46:21.964Z,5.27
2019-04-20T16:48:48.646Z,4.93
2019-04-20T16:51:18.737Z,4.80
2019-04-20T16:53:48.070Z,5.23
2019-04-20T16:56:19.005Z,7.87
2019-04-20T16:58:53.407Z,5.13
2019-04-20T17:01:19.381Z,6.90
2019-04-20T17:03:54.607Z,4.90
2019-04-20T17:06:20.582Z,4.60
2019-04-20T17:08:49.687Z,5.93
2019-04-20T17:11:18.829Z,8.33
2019-04-20T17:13:50.038Z,5.20
2019-04-20T17:16:19.617Z,8.23
2019-04-20T17:18:50.344Z,4.80
2019-04-20T17:21:23.506Z,5.37
2019-04-20T17:23:51.201Z,4.30
2019-04-20T17:26:32.452Z,5.70
2019-04-20T17:29:08.263Z,4.90
2019-04-20T17:32:11.909Z,6.43
2019-04-20T17:34:58.363Z,4.80
2019-04-20T17:37:12.909Z,4.83
2019-04-20T17:40:06.643Z,5.20
2019-04-20T17:42:32.458Z,6.33
2019-04-20T17:44:53.101Z,5.57
2019-04-20T17:47:34.755Z,5.70
2019-04-20T17:50:03.797Z,4.43
2019-04-20T17:52:42.921Z,5.20
2019-04-20T17:54:55.948Z,5.80
2019-04-20T17:57:25.457Z,5.27
2019-04-20T18:00:05.349Z,4.07
2019-04-20T18:02:53.508Z,5.93
2019-04-20T18:05:36.716Z,6.03
2019-04-20T18:08:06.282Z,9.13
2019-04-20T18:10:31.214Z,4.50
2019-04-20T18:12:47.725Z,5.00
2019-04-20T18:15:33.520Z,4.90
2019-04-20T18:18:28.758Z,6.67
2019-04-20T18:21:03.151Z,10.50
2019-04-20T18:23:37.977Z,9.40
2019-04-20T18:26:25.918Z,9.07
2019-04-20T18:28:59.030Z,7.07
2019-04-20T18:31:17.443Z,7.87
2019-04-20T18:33:48.499Z,5.87
2019-04-20T18:36:23.379Z,6.30
2019-04-20T18:38:54.324Z,8.07
2019-04-20T18:41:30.932Z,7.63
2019-04-20T18:43:55.423Z,9.27
2019-04-20T18:46:43.938Z,10.10
2019-04-20T18:49:10.050Z,7.43
2019-04-20T18:51:23.829Z,6.00
2019-04-20T18:53:53.868Z,6.50
2019-04-20T18:56:30.012Z,6.33
2019-04-20T18:58:55.608Z,13.27
2019-04-20T19:01:33.344Z,6.60
2019-04-20T19:03:57.206Z,6.23
2019-04-20T19:06:27.645Z,9.70
2019-04-20T19:08:59.005Z,11.70
2019-04-20T19:11:28.890Z,10.30
2019-04-20T19:14:23.600Z,10.10
2019-04-20T19:17:02.040Z,10.63
2019-04-20T19:19:52.897Z,8.40
2019-04-20T19:22:19.636Z,10.17
2019-04-20T19:24:49.771Z,12.53
2019-04-20T19:27:19.871Z,12.63
2019-04-20T19:29:56.429Z,10.67
2019-04-20T19:32:38.067Z,8.43
2019-04-20T19:35:01.538Z,16.03
2019-04-20T19:37:28.544Z,10.10
2019-04-20T19:40:04.448Z,10.87
2019-04-20T19:42:34.729Z,7.73
2019-04-20T19:45:08.857Z,8.10
2019-04-20T19:47:47.105Z,8.83
2019-04-20T19:50:26.745Z,8.00
2019-04-20T19:52:51.461Z,9.07
2019-04-20T19:55:14.363Z,8.63
2019-04-20T19:57:45.311Z,7.60
2019-04-20T19:59:59.846Z,12.10
2019-04-20T20:02:29.873Z,8.93
2019-04-20T20:05:05.370Z,8.90
2019-04-20T20:07:35.875Z,9.47
2019-04-20T20:10:04.381Z,9.33
2019-04-20T20:12:31.749Z,8.87
2019-04-20T20:15:01.608Z,10.20
2019-04-20T20:17:52.859Z,10.27
2019-04-20T20:20:27.032Z,16.10
2019-04-20T20:22:39.580Z,13.00
2019-04-20T20:25:03.237Z,13.07
2019-04-20T20:27:45.516Z,9.13
2019-04-20T20:30:11.938Z,12.30
2019-04-20T20:32:47.017Z,18.30
2019-04-20T20:35:13.997Z,27.37
2019-04-20T20:37:44.845Z,24.57
2019-04-20T20:40:17.398Z,27.30
2019-04-20T20:42:52.696Z,41.43
2019-04-20T20:45:21.051Z,52.93
2019-04-20T20:47:59.986Z,43.40
2019-04-20T20:50:33.848Z,31.20
2019-04-20T20:52:54.818Z,28.13
2019-04-20T20:55:25.514Z,21.90
2019-04-20T20:57:55.737Z,18.83
2019-04-20T21:00:28.188Z,18.90
2019-04-20T21:02:56.198Z,16.43
2019-04-20T21:05:17.703Z,16.13
2019-04-20T21:07:50.791Z,13.80
2019-04-20T21:10:25.662Z,15.13
2019-04-20T21:12:54.090Z,12.63
2019-04-20T21:15:22.689Z,10.20
2019-04-20T21:18:17.398Z,10.83
2019-04-20T21:20:46.543Z,14.40
2019-04-20T21:23:07.205Z,14.63
2019-04-20T21:25:33.526Z,12.70
2019-04-20T21:27:57.030Z,13.63
2019-04-20T21:30:34.981Z,10.03
2019-04-20T21:33:01.777Z,8.63
2019-04-20T21:35:32.451Z,8.30
2019-04-20T21:38:05.698Z,9.00
2019-04-20T21:40:36.139Z,8.57
2019-04-20T21:43:05.086Z,6.73
2019-04-20T21:45:35.447Z,7.20
2019-04-20T21:48:09.231Z,8.33
2019-04-20T21:50:53.469Z,12.33
2019-04-20T21:53:11.482Z,7.43
2019-04-20T21:55:34.211Z,8.77
2019-04-20T21:58:05.315Z,7.80
2019-04-20T22:00:42.526Z,8.20
2019-04-20T22:03:11.249Z,9.40
2019-04-20T22:05:40.211Z,8.33
2019-04-20T22:08:12.745Z,8.53
2019-04-20T22:10:40.763Z,10.03
2019-04-20T22:13:10.043Z,9.50
2019-04-20T22:15:46.615Z,12.97
2019-04-20T22:18:14.694Z,11.33
2019-04-20T22:20:52.324Z,10.23
2019-04-20T22:23:30.616Z,9.73
2019-04-20T22:25:55.215Z,7.80
2019-04-20T22:28:13.909Z,7.17
2019-04-20T22:30:44.011Z,7.80
2019-04-20T22:33:23.580Z,7.87
2019-04-20T22:35:54.959Z,8.43
2019-04-20T22:38:45.113Z,7.13
2019-04-20T22:41:13.980Z,7.43
2019-04-20T22:43:40.311Z,7.50
2019-04-20T22:46:09.579Z,8.10
2019-04-20T22:48:47.669Z,7.07
2019-04-20T22:51:28.176Z,5.10
2019-04-20T22:53:49.761Z,6.63
2019-04-20T22:56:31.464Z,6.10
2019-04-20T22:58:55.606Z,6.83
2019-04-20T23:01:22.909Z,6.70
2019-04-20T23:03:43.159Z,6.13
2019-04-20T23:06:12.626Z,6.77
2019-04-20T23:08:42.505Z,4.53
2019-04-20T23:11:17.993Z,5.67
2019-04-20T23:13:45.189Z,5.00
2019-04-20T23:16:13.363Z,5.57
2019-04-20T23:18:42.824Z,6.73
2019-04-20T23:21:15.782Z,8.53
2019-04-20T23:23:43.709Z,6.07
2019-04-20T23:26:16.892Z,7.10
2019-04-20T23:28:49.422Z,5.63
2019-04-20T23:31:19.702Z,7.87
2019-04-20T23:33:45.744Z,5.87
2019-04-20T23:36:29.200Z,6.40
2019-04-20T23:38:54.736Z,6.20
2019-04-20T23:41:21.904Z,12.27
2019-04-20T23:44:08.228Z,7.53
2019-04-20T23:47:02.074Z,6.60
2019-04-20T23:49:34.245Z,6.47
2019-04-20T23:52:27.048Z,8.10
2019-04-20T23:54:33.200Z,6.63
2019-04-20T23:57:01.685Z,6.40
2019-04-20T23:59:37.445Z,5.50
